CDG2351 ZSJN-ZHCC
Flight info
| Callsign | CDG2351 |
|---|---|
| Flight time | N/A |
| Altitude | 23600 |
| Route | EXUVU W4 WXI V33 LEKUB |
| Aircraft | B738/M-SDE2E3FGHIRWXY/LB1 |
Departure
| Time | 2026-05-08 08:35 |
|---|---|
| Airport | Jinan Yaoqiang International Airport (ZSJN) |
Arrival
| Time | N/A |
|---|---|
| Airport | Zhengzhou Xinzheng International Airport (ZHCC) |
| Time | Latitude | Longitude | Altitude | Speed | Heading |
|---|---|---|---|---|---|
| 2026-05-08 08:25 | 36.85506 | 117.21143 | 84 ft | 0 kts | 291° |
| 2026-05-08 08:27 | 36.85503 | 117.21152 | 84 ft | 2 kts | 292° |
| 2026-05-08 08:27 | 36.85498 | 117.21170 | 84 ft | 2 kts | 291° |
| 2026-05-08 08:27 | 36.85492 | 117.21188 | 84 ft | 2 kts | 291° |
| 2026-05-08 08:27 | 36.85487 | 117.21204 | 84 ft | 2 kts | 291° |
| 2026-05-08 08:28 | 36.85481 | 117.21222 | 84 ft | 2 kts | 291° |
| 2026-05-08 08:28 | 36.85476 | 117.21240 | 84 ft | 2 kts | 291° |
| 2026-05-08 08:28 | 36.85468 | 117.21255 | 84 ft | 2 kts | 321° |
| 2026-05-08 08:28 | 36.85455 | 117.21265 | 84 ft | 2 kts | 347° |
| 2026-05-08 08:29 | 36.85446 | 117.21265 | 84 ft | 1 kts | 3° |
| 2026-05-08 08:29 | 36.85440 | 117.21265 | 84 ft | 0 kts | 4° |
| 2026-05-08 08:30 | 36.85479 | 117.21266 | 84 ft | 8 kts | 0° |
| 2026-05-08 08:31 | 36.85504 | 117.21266 | 84 ft | 3 kts | 1° |
| 2026-05-08 08:31 | 36.85567 | 117.21267 | 84 ft | 16 kts | 0° |
| 2026-05-08 08:31 | 36.85651 | 117.21268 | 84 ft | 18 kts | 0° |
| 2026-05-08 08:31 | 36.85769 | 117.21359 | 84 ft | 20 kts | 27° |
| 2026-05-08 08:32 | 36.85921 | 117.21372 | 84 ft | 25 kts | 359° |
| 2026-05-08 08:32 | 36.86118 | 117.21372 | 84 ft | 31 kts | 1° |
| 2026-05-08 08:32 | 36.86354 | 117.21367 | 84 ft | 37 kts | 357° |
| 2026-05-08 08:32 | 36.86627 | 117.21373 | 84 ft | 38 kts | 358° |
| 2026-05-08 08:33 | 36.86887 | 117.21371 | 84 ft | 36 kts | 1° |
| 2026-05-08 08:33 | 36.87134 | 117.21374 | 84 ft | 33 kts | 7° |
| 2026-05-08 08:33 | 36.87328 | 117.21412 | 84 ft | 23 kts | 63° |
| 2026-05-08 08:33 | 36.87326 | 117.21597 | 84 ft | 18 kts | 142° |
| 2026-05-08 08:34 | 36.87276 | 117.21603 | 84 ft | 0 kts | 180° |
| 2026-05-08 08:34 | 36.87268 | 117.21603 | 84 ft | 6 kts | 180° |
| 2026-05-08 08:34 | 36.86898 | 117.21601 | 84 ft | 97 kts | 180° |
| 2026-05-08 08:34 | 36.85947 | 117.21603 | 85 ft | 172 kts | 181° |
| 2026-05-08 08:35 | 36.84644 | 117.21577 | 591 ft | 199 kts | 183° |
| 2026-05-08 08:35 | 36.83320 | 117.21540 | 1719 ft | 188 kts | 182° |
| 2026-05-08 08:35 | 36.82001 | 117.21452 | 2200 ft | 198 kts | 197° |
| 2026-05-08 08:35 | 36.80829 | 117.20515 | 2574 ft | 215 kts | 232° |
| 2026-05-08 08:36 | 36.80241 | 117.18728 | 3051 ft | 235 kts | 262° |
| 2026-05-08 08:36 | 36.80323 | 117.16697 | 3809 ft | 240 kts | 278° |
| 2026-05-08 08:36 | 36.80679 | 117.14612 | 4340 ft | 255 kts | 281° |
| 2026-05-08 08:36 | 36.81101 | 117.12379 | 4832 ft | 271 kts | 282° |
| 2026-05-08 08:37 | 36.81531 | 117.10040 | 5316 ft | 287 kts | 282° |
| 2026-05-08 08:37 | 36.81974 | 117.07550 | 5803 ft | 302 kts | 282° |
| 2026-05-08 08:37 | 36.82562 | 117.04968 | 6285 ft | 317 kts | 291° |
| 2026-05-08 08:37 | 36.83761 | 117.02619 | 6760 ft | 331 kts | 315° |
| 2026-05-08 08:38 | 36.85638 | 117.00887 | 7264 ft | 343 kts | 329° |
| 2026-05-08 08:38 | 36.87754 | 116.99468 | 7745 ft | 349 kts | 333° |
| 2026-05-08 08:38 | 36.89928 | 116.98110 | 8227 ft | 348 kts | 333° |
| 2026-05-08 08:38 | 36.92070 | 116.96740 | 8711 ft | 347 kts | 332° |
| 2026-05-08 08:39 | 36.94206 | 116.95312 | 9204 ft | 345 kts | 332° |
| 2026-05-08 08:39 | 36.96312 | 116.93856 | 9697 ft | 347 kts | 331° |
| 2026-05-08 08:39 | 36.98411 | 116.92375 | 10187 ft | 348 kts | 330° |
| 2026-05-08 08:39 | 37.00511 | 116.90881 | 10675 ft | 350 kts | 330° |
| 2026-05-08 08:40 | 37.02618 | 116.89376 | 11166 ft | 351 kts | 330° |
| 2026-05-08 08:40 | 37.04729 | 116.87857 | 11659 ft | 353 kts | 329° |
| 2026-05-08 08:40 | 37.06734 | 116.86092 | 12147 ft | 355 kts | 320° |
| 2026-05-08 08:40 | 37.08395 | 116.83798 | 12641 ft | 359 kts | 306° |
| 2026-05-08 08:41 | 37.09564 | 116.81034 | 13144 ft | 363 kts | 295° |
| 2026-05-08 08:41 | 37.10343 | 116.77982 | 13657 ft | 370 kts | 286° |
| 2026-05-08 08:41 | 37.10634 | 116.74776 | 14152 ft | 378 kts | 272° |
| 2026-05-08 08:41 | 37.10223 | 116.71495 | 14658 ft | 388 kts | 258° |
| 2026-05-08 08:42 | 37.09304 | 116.68309 | 15161 ft | 394 kts | 253° |
| 2026-05-08 08:42 | 37.08235 | 116.65105 | 15668 ft | 397 kts | 251° |
| 2026-05-08 08:42 | 37.07137 | 116.61949 | 16170 ft | 400 kts | 251° |
| 2026-05-08 08:42 | 37.06018 | 116.58754 | 16674 ft | 403 kts | 251° |
| 2026-05-08 08:43 | 37.04898 | 116.55539 | 17180 ft | 405 kts | 251° |
| 2026-05-08 08:43 | 37.03773 | 116.52280 | 17690 ft | 408 kts | 251° |
| 2026-05-08 08:43 | 37.02666 | 116.49058 | 18184 ft | 410 kts | 252° |
| 2026-05-08 08:43 | 37.01541 | 116.45778 | 18685 ft | 413 kts | 252° |
| 2026-05-08 08:44 | 37.00410 | 116.42477 | 19186 ft | 414 kts | 252° |
| 2026-05-08 08:44 | 36.99276 | 116.39169 | 19683 ft | 414 kts | 252° |
| 2026-05-08 08:44 | 36.98137 | 116.35847 | 20187 ft | 421 kts | 252° |
| 2026-05-08 08:44 | 36.96982 | 116.32474 | 20687 ft | 427 kts | 251° |
| 2026-05-08 08:45 | 36.95808 | 116.29054 | 21187 ft | 433 kts | 251° |
| 2026-05-08 08:45 | 36.94604 | 116.25554 | 21695 ft | 439 kts | 251° |
| 2026-05-08 08:45 | 36.93393 | 116.22040 | 22197 ft | 443 kts | 251° |
| 2026-05-08 08:45 | 36.92170 | 116.18497 | 22699 ft | 448 kts | 251° |
| 2026-05-08 08:46 | 36.90934 | 116.14924 | 23202 ft | 450 kts | 251° |
| 2026-05-08 08:46 | 36.89689 | 116.11334 | 23571 ft | 453 kts | 251° |
| 2026-05-08 08:46 | 36.88448 | 116.07759 | 23609 ft | 454 kts | 251° |
| 2026-05-08 08:46 | 36.87188 | 116.04137 | 23614 ft | 452 kts | 251° |
| 2026-05-08 08:47 | 36.85941 | 116.00562 | 23618 ft | 448 kts | 251° |
| 2026-05-08 08:47 | 36.84697 | 115.96999 | 23615 ft | 448 kts | 251° |
| 2026-05-08 08:47 | 36.83446 | 115.93409 | 23613 ft | 452 kts | 251° |
| 2026-05-08 08:47 | 36.82197 | 115.89822 | 23616 ft | 456 kts | 251° |
| 2026-05-08 08:48 | 36.80928 | 115.86181 | 23616 ft | 457 kts | 251° |
| 2026-05-08 08:48 | 36.79661 | 115.82556 | 23617 ft | 454 kts | 251° |
| 2026-05-08 08:48 | 36.78416 | 115.78999 | 23617 ft | 455 kts | 251° |
| 2026-05-08 08:48 | 36.77145 | 115.75373 | 23615 ft | 455 kts | 251° |
| 2026-05-08 08:49 | 36.75884 | 115.71782 | 23621 ft | 454 kts | 251° |
| 2026-05-08 08:49 | 36.74613 | 115.68171 | 23619 ft | 455 kts | 251° |
| 2026-05-08 08:49 | 36.73343 | 115.64565 | 23616 ft | 455 kts | 251° |
| 2026-05-08 08:49 | 36.72065 | 115.60941 | 23620 ft | 455 kts | 251° |
| 2026-05-08 08:50 | 36.70794 | 115.57336 | 23621 ft | 454 kts | 251° |
| 2026-05-08 08:50 | 36.69524 | 115.53741 | 23620 ft | 455 kts | 251° |
| 2026-05-08 08:50 | 36.68259 | 115.50166 | 23618 ft | 456 kts | 251° |
| 2026-05-08 08:50 | 36.66974 | 115.46539 | 23618 ft | 457 kts | 251° |
| 2026-05-08 08:51 | 36.65691 | 115.42920 | 23615 ft | 456 kts | 251° |
| 2026-05-08 08:51 | 36.64426 | 115.39359 | 23618 ft | 454 kts | 251° |
| 2026-05-08 08:51 | 36.63140 | 115.35738 | 23615 ft | 454 kts | 250° |
| 2026-05-08 08:51 | 36.61870 | 115.32166 | 23613 ft | 456 kts | 250° |
| 2026-05-08 08:52 | 36.60584 | 115.28551 | 23616 ft | 456 kts | 250° |
| 2026-05-08 08:52 | 36.59316 | 115.24989 | 23607 ft | 455 kts | 250° |
| 2026-05-08 08:52 | 36.58012 | 115.21420 | 23606 ft | 456 kts | 249° |
| 2026-05-08 08:52 | 36.56573 | 115.17899 | 23605 ft | 459 kts | 245° |
| 2026-05-08 08:53 | 36.54834 | 115.14535 | 23605 ft | 463 kts | 238° |
| 2026-05-08 08:53 | 36.52808 | 115.11407 | 23611 ft | 467 kts | 233° |
| 2026-05-08 08:53 | 36.50594 | 115.08453 | 23613 ft | 469 kts | 230° |
| 2026-05-08 08:53 | 36.48303 | 115.05626 | 23610 ft | 470 kts | 229° |
| 2026-05-08 08:54 | 36.45925 | 115.02807 | 23617 ft | 470 kts | 228° |
| 2026-05-08 08:54 | 36.43544 | 115.00031 | 23613 ft | 470 kts | 228° |
| 2026-05-08 08:54 | 36.41150 | 114.97253 | 23619 ft | 470 kts | 228° |
| 2026-05-08 08:54 | 36.38774 | 114.94513 | 23629 ft | 470 kts | 227° |
| 2026-05-08 08:55 | 36.36282 | 114.91914 | 23628 ft | 473 kts | 223° |
| 2026-05-08 08:55 | 36.33628 | 114.89486 | 23634 ft | 475 kts | 220° |
| 2026-05-08 08:55 | 36.30889 | 114.87178 | 23578 ft | 478 kts | 218° |
| 2026-05-08 08:55 | 36.28111 | 114.84940 | 23428 ft | 462 kts | 217° |
| 2026-05-08 08:56 | 36.25491 | 114.82879 | 23137 ft | 444 kts | 217° |
| 2026-05-08 08:56 | 36.22879 | 114.80836 | 22807 ft | 435 kts | 217° |
| 2026-05-08 08:56 | 36.20346 | 114.78844 | 22453 ft | 437 kts | 217° |
| 2026-05-08 08:56 | 36.17778 | 114.76810 | 22094 ft | 437 kts | 218° |
| 2026-05-08 08:57 | 36.15236 | 114.74790 | 21740 ft | 434 kts | 218° |
| 2026-05-08 08:57 | 36.12693 | 114.72771 | 21384 ft | 432 kts | 217° |
| 2026-05-08 08:57 | 36.10175 | 114.70770 | 21027 ft | 429 kts | 218° |
| 2026-05-08 08:57 | 36.07693 | 114.68798 | 20676 ft | 429 kts | 217° |
| 2026-05-08 08:58 | 36.05192 | 114.66809 | 20324 ft | 427 kts | 218° |
| 2026-05-08 08:58 | 36.02764 | 114.64879 | 19979 ft | 424 kts | 217° |
| 2026-05-08 08:58 | 36.00298 | 114.62920 | 19632 ft | 423 kts | 217° |
| 2026-05-08 08:58 | 35.97834 | 114.60963 | 19282 ft | 421 kts | 217° |
| 2026-05-08 08:59 | 35.95379 | 114.59015 | 18930 ft | 419 kts | 217° |
| 2026-05-08 08:59 | 35.92910 | 114.57057 | 18575 ft | 418 kts | 217° |
| 2026-05-08 08:59 | 35.90499 | 114.55146 | 18230 ft | 416 kts | 217° |
| 2026-05-08 08:59 | 35.88070 | 114.53220 | 17878 ft | 414 kts | 217° |
| 2026-05-08 09:00 | 35.85654 | 114.51306 | 17537 ft | 413 kts | 217° |
| 2026-05-08 09:00 | 35.83236 | 114.49393 | 17194 ft | 412 kts | 217° |
| 2026-05-08 09:00 | 35.80815 | 114.47480 | 16847 ft | 410 kts | 217° |
| 2026-05-08 09:00 | 35.78437 | 114.45602 | 16499 ft | 408 kts | 216° |
| 2026-05-08 09:01 | 35.76035 | 114.43707 | 16150 ft | 406 kts | 216° |
| 2026-05-08 09:01 | 35.73682 | 114.41852 | 15809 ft | 405 kts | 216° |
| 2026-05-08 09:01 | 35.71308 | 114.39983 | 15461 ft | 405 kts | 216° |
| 2026-05-08 09:01 | 35.68954 | 114.38130 | 15119 ft | 402 kts | 216° |
| 2026-05-08 09:02 | 35.66598 | 114.36278 | 14775 ft | 400 kts | 215° |
| 2026-05-08 09:02 | 35.64247 | 114.34430 | 14427 ft | 399 kts | 214° |
| 2026-05-08 09:02 | 35.61907 | 114.32591 | 14079 ft | 398 kts | 214° |
| 2026-05-08 09:02 | 35.59594 | 114.30775 | 13740 ft | 395 kts | 214° |
| 2026-05-08 09:03 | 35.57293 | 114.28970 | 13400 ft | 393 kts | 214° |
| 2026-05-08 09:03 | 35.54997 | 114.27171 | 13055 ft | 392 kts | 214° |
| 2026-05-08 09:03 | 35.52698 | 114.25370 | 12709 ft | 388 kts | 214° |
| 2026-05-08 09:03 | 35.50443 | 114.23598 | 12372 ft | 386 kts | 214° |
| 2026-05-08 09:04 | 35.48196 | 114.21815 | 12027 ft | 383 kts | 214° |
| 2026-05-08 09:04 | 35.45959 | 114.20030 | 11684 ft | 382 kts | 214° |
| 2026-05-08 09:04 | 35.43749 | 114.18265 | 11346 ft | 381 kts | 214° |
| 2026-05-08 09:04 | 35.41523 | 114.16489 | 11002 ft | 378 kts | 214° |
| 2026-05-08 09:05 | 35.39339 | 114.14753 | 10660 ft | 376 kts | 213° |
| 2026-05-08 09:05 | 35.37146 | 114.13010 | 10315 ft | 374 kts | 213° |
| 2026-05-08 09:05 | 35.34949 | 114.11266 | 9973 ft | 372 kts | 213° |
| 2026-05-08 09:05 | 35.32791 | 114.09556 | 9634 ft | 366 kts | 213° |
| 2026-05-08 09:06 | 35.30683 | 114.07886 | 9383 ft | 355 kts | 213° |
| 2026-05-08 09:06 | 35.28656 | 114.06281 | 9187 ft | 344 kts | 213° |
| 2026-05-08 09:06 | 35.26675 | 114.04715 | 8988 ft | 334 kts | 213° |
| 2026-05-08 09:06 | 35.24759 | 114.03199 | 8799 ft | 329 kts | 213° |
| 2026-05-08 09:07 | 35.22816 | 114.01664 | 8610 ft | 329 kts | 212° |
| 2026-05-08 09:07 | 35.20904 | 114.00153 | 8422 ft | 330 kts | 212° |
| 2026-05-08 09:07 | 35.18964 | 113.98623 | 8222 ft | 329 kts | 212° |
| 2026-05-08 09:07 | 35.17048 | 113.97111 | 8051 ft | 326 kts | 212° |
| 2026-05-08 09:08 | 35.15145 | 113.95612 | 7901 ft | 325 kts | 212° |
| 2026-05-08 09:08 | 35.13256 | 113.94122 | 7740 ft | 325 kts | 212° |
| 2026-05-08 09:08 | 35.11359 | 113.92625 | 7589 ft | 324 kts | 212° |
| 2026-05-08 09:08 | 35.09470 | 113.91137 | 7431 ft | 323 kts | 212° |
| 2026-05-08 09:09 | 35.07592 | 113.89658 | 7273 ft | 322 kts | 212° |
| 2026-05-08 09:09 | 35.05699 | 113.88170 | 7111 ft | 320 kts | 212° |
| 2026-05-08 09:09 | 35.03836 | 113.86706 | 6959 ft | 320 kts | 212° |
| 2026-05-08 09:09 | 35.01976 | 113.85244 | 6804 ft | 319 kts | 212° |
| 2026-05-08 09:10 | 35.00097 | 113.83769 | 6644 ft | 317 kts | 212° |
| 2026-05-08 09:10 | 34.98266 | 113.82332 | 6489 ft | 315 kts | 212° |
| 2026-05-08 09:10 | 34.96412 | 113.80878 | 6325 ft | 316 kts | 212° |
| 2026-05-08 09:10 | 34.94567 | 113.79433 | 6174 ft | 315 kts | 212° |
| 2026-05-08 09:11 | 34.92717 | 113.77985 | 6011 ft | 311 kts | 212° |
| 2026-05-08 09:11 | 34.90904 | 113.76564 | 5852 ft | 309 kts | 212° |
| 2026-05-08 09:11 | 34.89091 | 113.75144 | 5692 ft | 309 kts | 212° |
| 2026-05-08 09:11 | 34.87284 | 113.73731 | 5536 ft | 308 kts | 212° |
| 2026-05-08 09:12 | 34.85563 | 113.72230 | 5380 ft | 306 kts | 217° |
| 2026-05-08 09:12 | 34.83895 | 113.70583 | 5223 ft | 307 kts | 220° |
| 2026-05-08 09:12 | 34.82278 | 113.68909 | 5066 ft | 306 kts | 220° |
| 2026-05-08 09:12 | 34.80667 | 113.67237 | 4907 ft | 303 kts | 220° |
| 2026-05-08 09:13 | 34.79061 | 113.65582 | 4748 ft | 302 kts | 220° |
| 2026-05-08 09:13 | 34.77470 | 113.63956 | 4594 ft | 301 kts | 219° |
| 2026-05-08 09:13 | 34.75881 | 113.62335 | 4429 ft | 291 kts | 220° |
| 2026-05-08 09:13 | 34.74354 | 113.60780 | 4271 ft | 281 kts | 219° |
| 2026-05-08 09:14 | 34.72880 | 113.59280 | 4115 ft | 272 kts | 220° |
| 2026-05-08 09:14 | 34.71448 | 113.57824 | 3955 ft | 262 kts | 220° |
| 2026-05-08 09:14 | 34.70072 | 113.56425 | 3863 ft | 251 kts | 220° |
| 2026-05-08 09:14 | 34.68774 | 113.55123 | 3844 ft | 237 kts | 217° |
| 2026-05-08 09:15 | 34.67383 | 113.54130 | 3836 ft | 222 kts | 197° |
| 2026-05-08 09:15 | 34.65910 | 113.54027 | 3864 ft | 208 kts | 168° |
| 2026-05-08 09:15 | 34.64620 | 113.54627 | 3854 ft | 193 kts | 152° |
| 2026-05-08 09:15 | 34.63605 | 113.55592 | 3844 ft | 182 kts | 125° |
| 2026-05-08 09:16 | 34.63089 | 113.56982 | 3866 ft | 182 kts | 110° |
| 2026-05-08 09:16 | 34.62660 | 113.58453 | 3850 ft | 185 kts | 113° |
| 2026-05-08 09:16 | 34.62180 | 113.59879 | 3840 ft | 178 kts | 114° |
| 2026-05-08 09:16 | 34.61719 | 113.61234 | 3845 ft | 169 kts | 114° |
| 2026-05-08 09:17 | 34.61277 | 113.62539 | 3850 ft | 167 kts | 114° |
| 2026-05-08 09:17 | 34.60843 | 113.63818 | 3887 ft | 163 kts | 114° |
| 2026-05-08 09:17 | 34.60411 | 113.65089 | 3808 ft | 162 kts | 114° |
| 2026-05-08 09:17 | 34.59984 | 113.66348 | 3545 ft | 160 kts | 114° |
| 2026-05-08 09:18 | 34.59578 | 113.67557 | 3362 ft | 148 kts | 114° |
| 2026-05-08 09:18 | 34.59195 | 113.68689 | 3138 ft | 146 kts | 115° |
| 2026-05-08 09:18 | 34.58805 | 113.69830 | 2983 ft | 148 kts | 115° |
| 2026-05-08 09:18 | 34.58403 | 113.71011 | 2758 ft | 153 kts | 115° |
| 2026-05-08 09:19 | 34.57997 | 113.72203 | 2549 ft | 151 kts | 115° |
| 2026-05-08 09:19 | 34.57603 | 113.73360 | 2332 ft | 148 kts | 115° |
| 2026-05-08 09:19 | 34.57209 | 113.74512 | 2170 ft | 147 kts | 116° |
| 2026-05-08 09:19 | 34.56810 | 113.75678 | 1959 ft | 151 kts | 115° |
| 2026-05-08 09:20 | 34.56414 | 113.76849 | 1743 ft | 147 kts | 115° |
| 2026-05-08 09:20 | 34.56036 | 113.77959 | 1555 ft | 140 kts | 115° |
| 2026-05-08 09:20 | 34.55657 | 113.79055 | 1425 ft | 139 kts | 116° |
| 2026-05-08 09:20 | 34.55276 | 113.80170 | 1238 ft | 147 kts | 116° |
| 2026-05-08 09:21 | 34.54883 | 113.81316 | 1076 ft | 151 kts | 116° |
| 2026-05-08 09:21 | 34.54481 | 113.82485 | 822 ft | 151 kts | 114° |